Time;durP1;ratioP1;P1;durP2;ratioP2;P2;SDS_P1;SDS_P2;PMS_P1;PMS_P2;Temp;Humidity;BMP_temperature;BMP_pressure;BME280_temperature;BME280_humidity;BME280_pressure;Samples;Min_cycle;Max_cycle;Signal;HPM_P1;HPM_P2
2022/05/21 00:01:27;;;;;;;6.65;3.05;;;;;;;;;;5058716;28;20051;-61
2022/05/21 00:03:53;;;;;;;5.72;2.90;;;;;;;;;;5064546;28;20037;-61
2022/05/21 00:06:19;;;;;;;5.38;2.60;;;;;;;;;;5061202;28;20477;-61
2022/05/21 00:08:45;;;;;;;8.35;3.08;;;;;;;;;;5063580;28;20032;-61
2022/05/21 00:11:11;;;;;;;4.55;2.90;;;;;;;;;;5061810;28;20029;-61
2022/05/21 00:13:36;;;;;;;4.30;2.65;;;;;;;;;;5071689;28;20032;-61
2022/05/21 00:16:02;;;;;;;3.97;3.13;;;;;;;;;;5066673;28;20039;-61
2022/05/21 00:18:28;;;;;;;4.70;2.60;;;;;;;;;;5069894;28;21632;-61
2022/05/21 00:20:53;;;;;;;7.95;3.10;;;;;;;;;;5061770;28;20041;-61
2022/05/21 00:23:24;;;;;;;5.60;3.00;;;;;;;;;;5063723;28;20115;-61
2022/05/21 00:25:59;;;;;;;4.45;2.90;;;;;;;;;;5075389;28;20029;-61
2022/05/21 00:28:25;;;;;;;5.13;2.85;;;;;;;;;;5064233;28;20032;-61
2022/05/21 00:30:50;;;;;;;4.55;2.88;;;;;;;;;;5061312;28;20048;-61
2022/05/21 00:33:17;;;;;;;4.95;3.13;;;;;;;;;;5060960;28;20037;-61
2022/05/21 00:35:42;;;;;;;12.48;2.83;;;;;;;;;;5058384;28;20055;-61
2022/05/21 00:38:09;;;;;;;9.95;3.17;;;;;;;;;;5061764;28;20058;-61
2022/05/21 00:40:37;;;;;;;9.60;3.25;;;;;;;;;;5060865;28;20028;-61
2022/05/21 00:43:04;;;;;;;12.48;3.80;;;;;;;;;;5066543;28;20029;-61
2022/05/21 00:45:30;;;;;;;8.02;3.42;;;;;;;;;;5063590;28;20052;-61
2022/05/21 00:47:57;;;;;;;6.15;3.08;;;;;;;;;;5057608;28;20424;-61
2022/05/21 00:50:27;;;;;;;6.38;2.90;;;;;;;;;;5057101;28;20037;-61
2022/05/21 00:52:53;;;;;;;6.90;3.33;;;;;;;;;;5057848;28;20051;-61
2022/05/21 00:55:24;;;;;;;6.97;2.80;;;;;;;;;;5059579;28;20149;-61
2022/05/21 01:00:48;;;;;;;5.78;3.08;;;;;;;;;;5072289;28;20044;-61
2022/05/21 01:03:16;;;;;;;7.50;3.00;;;;;;;;;;5063805;28;20499;-61
2022/05/21 01:05:46;;;;;;;9.30;3.08;;;;;;;;;;5058497;28;20032;-61
2022/05/21 01:08:12;;;;;;;7.47;2.92;;;;;;;;;;5066061;28;20034;-61
2022/05/21 01:10:46;;;;;;;14.13;3.03;;;;;;;;;;5066390;28;20027;-61
2022/05/21 01:13:16;;;;;;;11.27;2.92;;;;;;;;;;5061128;28;20565;-61
2022/05/21 01:15:45;;;;;;;6.70;2.72;;;;;;;;;;5062424;28;20486;-61
2022/05/21 01:18:11;;;;;;;6.72;3.50;;;;;;;;;;5066295;28;20120;-61
2022/05/21 01:20:44;;;;;;;4.70;2.65;;;;;;;;;;5065576;28;20123;-61
2022/05/21 01:23:11;;;;;;;10.10;3.30;;;;;;;;;;5054659;28;20494;-60
2022/05/21 01:25:39;;;;;;;4.38;3.00;;;;;;;;;;5070503;28;20039;-61
2022/05/21 01:28:09;;;;;;;5.63;2.90;;;;;;;;;;5065347;28;20508;-60
2022/05/21 01:30:42;;;;;;;6.47;2.80;;;;;;;;;;5055968;28;20044;-60
2022/05/21 01:33:11;;;;;;;6.80;2.97;;;;;;;;;;5063617;28;20056;-60
2022/05/21 01:35:39;;;;;;;7.25;2.72;;;;;;;;;;5060818;28;20388;-61
2022/05/21 01:38:06;;;;;;;4.65;3.17;;;;;;;;;;5058746;28;20103;-61
2022/05/21 01:40:32;;;;;;;6.38;2.83;;;;;;;;;;5057328;28;20025;-61
2022/05/21 01:45:42;;;;;;;4.75;2.75;;;;;;;;;;5061471;28;20426;-61
2022/05/21 01:48:09;;;;;;;5.10;3.15;;;;;;;;;;5060886;28;20202;-61
2022/05/21 01:50:38;;;;;;;6.65;2.95;;;;;;;;;;5052411;28;20025;-61
2022/05/21 01:53:05;;;;;;;3.65;3.10;;;;;;;;;;5061489;28;20507;-61
2022/05/21 01:55:31;;;;;;;8.25;3.10;;;;;;;;;;5051993;28;20049;-61
2022/05/21 01:57:57;;;;;;;3.65;3.25;;;;;;;;;;5057231;28;20040;-60
2022/05/21 02:00:23;;;;;;;8.27;3.00;;;;;;;;;;5063286;28;20035;-61
2022/05/21 02:02:48;;;;;;;6.85;3.40;;;;;;;;;;5065465;28;20036;-61
2022/05/21 02:05:14;;;;;;;11.13;3.45;;;;;;;;;;5063517;28;20036;-61
2022/05/21 02:07:41;;;;;;;7.15;3.40;;;;;;;;;;5062196;28;20025;-61
2022/05/21 02:10:07;;;;;;;9.38;3.53;;;;;;;;;;5062238;28;20031;-61
2022/05/21 02:12:33;;;;;;;7.40;4.00;;;;;;;;;;5055545;28;20507;-61
2022/05/21 02:14:58;;;;;;;5.18;3.15;;;;;;;;;;5057710;28;20025;-61
2022/05/21 02:17:24;;;;;;;4.50;2.90;;;;;;;;;;5057366;28;20033;-60
2022/05/21 02:19:50;;;;;;;4.15;3.17;;;;;;;;;;5065404;28;20037;-60
2022/05/21 02:22:17;;;;;;;6.88;3.20;;;;;;;;;;5061847;28;20021;-61
2022/05/21 02:24:43;;;;;;;12.30;3.17;;;;;;;;;;5062274;28;20036;-61
2022/05/21 02:27:13;;;;;;;5.65;2.78;;;;;;;;;;5060874;28;20033;-61
2022/05/21 02:29:40;;;;;;;7.95;3.40;;;;;;;;;;5057224;28;20100;-61
2022/05/21 02:32:06;;;;;;;6.15;3.45;;;;;;;;;;5060773;28;20032;-61
2022/05/21 02:34:32;;;;;;;3.70;2.83;;;;;;;;;;5070114;28;20158;-61
2022/05/21 02:39:43;;;;;;;6.55;3.25;;;;;;;;;;5060463;28;20029;-61
2022/05/21 02:42:43;;;;;;;8.85;3.60;;;;;;;;;;5059309;28;20021;-60
2022/05/21 02:44:55;;;;;;;10.10;3.35;;;;;;;;;;5068820;28;20032;-61
2022/05/21 02:47:21;;;;;;;7.10;3.72;;;;;;;;;;5055192;28;20036;-60
2022/05/21 02:49:47;;;;;;;3.97;3.20;;;;;;;;;;5057099;28;20049;-59
2022/05/21 02:52:13;;;;;;;6.32;3.35;;;;;;;;;;5069674;28;20059;-61
2022/05/21 02:54:39;;;;;;;6.97;3.50;;;;;;;;;;5066462;28;20109;-61
2022/05/21 02:57:08;;;;;;;11.43;3.65;;;;;;;;;;5063349;28;20078;-60
2022/05/21 02:59:35;;;;;;;5.28;3.75;;;;;;;;;;5052907;28;20016;-61
2022/05/21 03:02:01;;;;;;;13.75;3.65;;;;;;;;;;5058030;28;20028;-61
2022/05/21 03:04:27;;;;;;;7.88;3.85;;;;;;;;;;5058331;28;20021;-60
2022/05/21 03:06:53;;;;;;;13.82;3.53;;;;;;;;;;5062688;28;20029;-61
2022/05/21 03:12:04;;;;;;;6.15;3.53;;;;;;;;;;5058960;28;20106;-60
2022/05/21 03:14:30;;;;;;;7.88;4.40;;;;;;;;;;5064286;28;20026;-61
2022/05/21 03:16:59;;;;;;;8.90;3.40;;;;;;;;;;5056934;28;20023;-61
2022/05/21 03:19:31;;;;;;;5.70;3.42;;;;;;;;;;5052334;28;20028;-61
2022/05/21 03:21:57;;;;;;;8.35;4.15;;;;;;;;;;5054782;28;20024;-61
2022/05/21 03:24:24;;;;;;;7.32;3.80;;;;;;;;;;5059460;28;20706;-60
2022/05/21 03:26:50;;;;;;;7.25;3.30;;;;;;;;;;5059139;28;20048;-61
2022/05/21 03:29:16;;;;;;;7.32;3.88;;;;;;;;;;5054616;28;20121;-61
2022/05/21 03:31:42;;;;;;;6.28;3.35;;;;;;;;;;5058720;28;20101;-61
2022/05/21 03:34:08;;;;;;;6.20;3.53;;;;;;;;;;5072116;28;20031;-61
2022/05/21 03:36:34;;;;;;;7.28;3.42;;;;;;;;;;5065058;28;20032;-61
2022/05/21 03:39:00;;;;;;;15.48;3.47;;;;;;;;;;5054986;28;20032;-61
2022/05/21 03:41:27;;;;;;;5.80;3.70;;;;;;;;;;5056818;28;20029;-60
2022/05/21 03:43:54;;;;;;;7.97;3.35;;;;;;;;;;5055524;28;20087;-61
2022/05/21 03:46:19;;;;;;;11.93;3.28;;;;;;;;;;5066605;28;20040;-61
2022/05/21 03:48:46;;;;;;;5.88;3.92;;;;;;;;;;5062351;28;20036;-61
2022/05/21 03:51:11;;;;;;;7.82;3.42;;;;;;;;;;5073135;28;20037;-61
2022/05/21 03:53:38;;;;;;;8.73;3.47;;;;;;;;;;5070597;28;20044;-61
2022/05/21 03:56:05;;;;;;;6.10;3.25;;;;;;;;;;5062695;28;20508;-61
2022/05/21 03:58:31;;;;;;;8.48;3.30;;;;;;;;;;5064970;28;20546;-61
2022/05/21 04:00:57;;;;;;;8.15;3.70;;;;;;;;;;5059530;28;20043;-61
2022/05/21 04:03:23;;;;;;;9.98;3.58;;;;;;;;;;5069959;28;20119;-61
2022/05/21 04:05:49;;;;;;;8.35;3.55;;;;;;;;;;5064491;28;20043;-60
2022/05/21 04:08:18;;;;;;;7.03;3.70;;;;;;;;;;5068091;28;20036;-61
2022/05/21 04:10:44;;;;;;;7.25;3.28;;;;;;;;;;5062231;28;20033;-61
2022/05/21 04:13:10;;;;;;;12.80;3.70;;;;;;;;;;5066985;28;20439;-61
2022/05/21 04:15:36;;;;;;;6.90;3.97;;;;;;;;;;5064664;28;20048;-61
2022/05/21 04:18:01;;;;;;;7.63;4.20;;;;;;;;;;5059469;28;20477;-61
2022/05/21 04:20:27;;;;;;;5.30;3.70;;;;;;;;;;5064080;28;20042;-61
2022/05/21 04:22:53;;;;;;;6.47;3.83;;;;;;;;;;5065391;28;20039;-60
2022/05/21 04:25:20;;;;;;;12.15;3.90;;;;;;;;;;5065412;28;20025;-61
2022/05/21 04:27:46;;;;;;;9.45;3.83;;;;;;;;;;5059342;28;20067;-61
2022/05/21 04:30:28;;;;;;;11.35;4.03;;;;;;;;;;5060088;28;20029;-61
2022/05/21 04:32:57;;;;;;;9.65;3.88;;;;;;;;;;5064308;28;20175;-61
2022/05/21 04:35:24;;;;;;;6.15;3.83;;;;;;;;;;5059686;28;20040;-61
2022/05/21 04:37:50;;;;;;;19.40;4.90;;;;;;;;;;5053823;28;20485;-60
2022/05/21 04:40:19;;;;;;;8.43;4.25;;;;;;;;;;5058901;28;20068;-61
2022/05/21 04:42:45;;;;;;;13.07;4.35;;;;;;;;;;5066033;28;20150;-61
2022/05/21 04:45:12;;;;;;;9.55;3.85;;;;;;;;;;5055850;28;20111;-61
2022/05/21 04:47:38;;;;;;;9.82;4.00;;;;;;;;;;5062009;28;20477;-61
2022/05/21 04:50:07;;;;;;;7.82;3.90;;;;;;;;;;5054814;28;20135;-61
2022/05/21 04:52:34;;;;;;;11.00;3.75;;;;;;;;;;5063144;28;20033;-61
2022/05/21 04:55:04;;;;;;;7.07;3.95;;;;;;;;;;5061035;28;20044;-61
2022/05/21 04:57:30;;;;;;;8.18;4.25;;;;;;;;;;5071968;28;20024;-61
2022/05/21 04:59:56;;;;;;;12.63;3.78;;;;;;;;;;5065910;28;20392;-60
2022/05/21 05:02:22;;;;;;;11.52;4.30;;;;;;;;;;5068673;28;20102;-61
2022/05/21 05:04:48;;;;;;;8.20;3.53;;;;;;;;;;5059401;28;20029;-61
2022/05/21 05:07:13;;;;;;;13.05;4.07;;;;;;;;;;5068526;28;20036;-61
2022/05/21 05:09:44;;;;;;;7.50;4.20;;;;;;;;;;5063975;28;20028;-61
2022/05/21 05:12:10;;;;;;;7.22;4.00;;;;;;;;;;5054293;28;20049;-60
2022/05/21 05:14:36;;;;;;;19.08;4.10;;;;;;;;;;5060726;28;20035;-61
2022/05/21 05:17:03;;;;;;;8.90;3.92;;;;;;;;;;5067955;28;20028;-61
2022/05/21 05:19:30;;;;;;;8.35;3.67;;;;;;;;;;5062655;28;20428;-60
2022/05/21 05:21:57;;;;;;;9.70;4.28;;;;;;;;;;5072736;28;20097;-60
2022/05/21 05:24:23;;;;;;;10.57;4.13;;;;;;;;;;5062476;28;20098;-61
2022/05/21 05:26:49;;;;;;;8.27;3.90;;;;;;;;;;5062199;28;20041;-61
2022/05/21 05:29:15;;;;;;;10.10;3.72;;;;;;;;;;5065914;28;20054;-60
2022/05/21 05:31:40;;;;;;;8.15;4.13;;;;;;;;;;5051071;28;20031;-61
2022/05/21 05:34:06;;;;;;;10.27;3.97;;;;;;;;;;5068694;28;20028;-61
2022/05/21 05:36:32;;;;;;;12.00;4.00;;;;;;;;;;5061833;28;20021;-60
2022/05/21 05:38:59;;;;;;;13.77;4.00;;;;;;;;;;5061743;28;20032;-61
2022/05/21 05:41:29;;;;;;;9.45;4.00;;;;;;;;;;5054448;28;20024;-61
2022/05/21 05:43:56;;;;;;;6.63;3.85;;;;;;;;;;5060366;28;20079;-61
2022/05/21 05:46:23;;;;;;;9.55;4.32;;;;;;;;;;5054184;28;20029;-61
2022/05/21 05:48:48;;;;;;;15.45;3.83;;;;;;;;;;5060645;28;20061;-61
2022/05/21 05:51:16;;;;;;;10.57;4.15;;;;;;;;;;5063584;28;20752;-66
2022/05/21 05:53:43;;;;;;;9.07;3.65;;;;;;;;;;5058758;28;20576;-61
2022/05/21 05:56:09;;;;;;;9.38;3.65;;;;;;;;;;5059668;28;20063;-61
2022/05/21 06:01:23;;;;;;;8.13;3.92;;;;;;;;;;4984146;28;20493;-61
2022/05/21 06:03:49;;;;;;;9.00;3.88;;;;;;;;;;4991926;28;20042;-60
2022/05/21 06:06:15;;;;;;;12.18;3.60;;;;;;;;;;4986311;28;20121;-61
2022/05/21 06:08:41;;;;;;;6.32;3.33;;;;;;;;;;4988659;28;20149;-61
2022/05/21 06:11:07;;;;;;;7.90;3.80;;;;;;;;;;4988287;28;20026;-60
2022/05/21 06:13:33;;;;;;;9.27;3.88;;;;;;;;;;4983773;28;20116;-61
2022/05/21 06:16:00;;;;;;;14.40;4.60;;;;;;;;;;4986971;28;20030;-61
2022/05/21 06:18:26;;;;;;;9.23;4.85;;;;;;;;;;4984184;28;20046;-61
2022/05/21 06:20:51;;;;;;;10.65;4.55;;;;;;;;;;4983610;28;20038;-61
2022/05/21 06:23:19;;;;;;;10.43;4.18;;;;;;;;;;4982559;28;20041;-61
2022/05/21 06:25:45;;;;;;;9.73;4.20;;;;;;;;;;4986728;28;20407;-61
2022/05/21 06:28:11;;;;;;;13.52;4.75;;;;;;;;;;4988603;28;20030;-61
2022/05/21 06:30:39;;;;;;;10.77;4.88;;;;;;;;;;4983426;28;20085;-62
2022/05/21 06:33:24;;;;;;;7.25;3.65;;;;;;;;;;4981249;28;20045;-61
2022/05/21 06:36:05;;;;;;;8.40;3.78;;;;;;;;;;4982254;28;20025;-60
2022/05/21 06:38:31;;;;;;;9.82;3.80;;;;;;;;;;5020857;28;20049;-61
2022/05/21 06:40:57;;;;;;;9.27;3.65;;;;;;;;;;5060995;28;20037;-61
2022/05/21 06:43:23;;;;;;;8.90;3.22;;;;;;;;;;5058889;28;20024;-61
2022/05/21 06:45:49;;;;;;;11.38;3.72;;;;;;;;;;5057205;28;20477;-60
2022/05/21 06:48:14;;;;;;;7.85;3.22;;;;;;;;;;5060124;28;20039;-61
2022/05/21 06:50:40;;;;;;;10.00;3.33;;;;;;;;;;5060333;28;20024;-61
2022/05/21 06:53:06;;;;;;;10.02;3.33;;;;;;;;;;5063003;28;20463;-60
2022/05/21 06:55:32;;;;;;;10.65;3.10;;;;;;;;;;5058292;28;20029;-61
2022/05/21 06:57:58;;;;;;;14.55;3.70;;;;;;;;;;5066868;28;20373;-61
2022/05/21 07:00:24;;;;;;;12.40;3.75;;;;;;;;;;5063275;28;20035;-61
2022/05/21 07:02:52;;;;;;;25.02;4.57;;;;;;;;;;5060609;28;20033;-61
2022/05/21 07:08:05;;;;;;;12.93;4.03;;;;;;;;;;5065050;28;20124;-61
2022/05/21 07:10:31;;;;;;;16.45;3.60;;;;;;;;;;5062829;28;20040;-61
2022/05/21 07:12:58;;;;;;;14.65;4.25;;;;;;;;;;5064972;28;20052;-61
2022/05/21 07:15:24;;;;;;;19.35;3.95;;;;;;;;;;5069928;28;20472;-60
2022/05/21 07:17:49;;;;;;;18.35;4.20;;;;;;;;;;5064361;28;20028;-61
2022/05/21 07:20:19;;;;;;;13.15;3.97;;;;;;;;;;5061585;28;21040;-61
2022/05/21 07:22:47;;;;;;;9.35;3.80;;;;;;;;;;5063384;28;20025;-62
2022/05/21 07:25:16;;;;;;;9.60;3.17;;;;;;;;;;5066491;28;20032;-61
2022/05/21 07:27:42;;;;;;;14.10;3.42;;;;;;;;;;5066439;28;20048;-61
2022/05/21 07:30:09;;;;;;;13.82;3.60;;;;;;;;;;5066661;28;20021;-61
2022/05/21 07:32:35;;;;;;;13.07;4.20;;;;;;;;;;5063144;28;20035;-61
2022/05/21 07:35:06;;;;;;;13.90;3.30;;;;;;;;;;5068693;28;20028;-61
2022/05/21 07:37:33;;;;;;;7.30;3.03;;;;;;;;;;5061863;28;20012;-61
2022/05/21 07:39:59;;;;;;;10.48;3.17;;;;;;;;;;5066555;28;20041;-60
2022/05/21 07:42:24;;;;;;;17.60;4.20;;;;;;;;;;5067202;28;20124;-61
2022/05/21 07:44:50;;;;;;;14.23;3.88;;;;;;;;;;5064207;28;20112;-61
2022/05/21 07:47:16;;;;;;;12.18;3.63;;;;;;;;;;5057330;28;20024;-61
2022/05/21 07:49:42;;;;;;;11.05;3.50;;;;;;;;;;5064353;28;20041;-61
2022/05/21 07:52:09;;;;;;;7.53;3.03;;;;;;;;;;5069768;28;20119;-61
2022/05/21 07:54:35;;;;;;;12.30;3.70;;;;;;;;;;5061301;28;20047;-61
2022/05/21 07:57:02;;;;;;;11.82;3.83;;;;;;;;;;5070390;28;20025;-61
2022/05/21 07:59:28;;;;;;;12.57;4.10;;;;;;;;;;5065067;28;20516;-61
2022/05/21 08:01:54;;;;;;;15.15;3.85;;;;;;;;;;5057986;28;20025;-61
2022/05/21 08:04:19;;;;;;;13.52;4.55;;;;;;;;;;5063640;28;20039;-61
2022/05/21 08:06:45;;;;;;;9.65;3.80;;;;;;;;;;5075603;28;20032;-61
2022/05/21 08:09:11;;;;;;;10.10;3.78;;;;;;;;;;5058625;28;20037;-61
2022/05/21 08:11:37;;;;;;;21.63;4.53;;;;;;;;;;5061703;28;20496;-61
2022/05/21 08:14:03;;;;;;;12.07;4.28;;;;;;;;;;5062378;28;20040;-61
2022/05/21 08:16:29;;;;;;;16.45;3.83;;;;;;;;;;5041230;28;20477;-61
2022/05/21 08:18:56;;;;;;;14.70;4.07;;;;;;;;;;5066431;28;20236;-61
2022/05/21 08:21:23;;;;;;;9.55;3.63;;;;;;;;;;5064307;28;20108;-59
2022/05/21 08:29:17;;;;;;;11.75;3.72;;;;;;;;;;5063017;28;20021;-61
2022/05/21 08:31:43;;;;;;;10.27;3.92;;;;;;;;;;5064912;28;20040;-61
2022/05/21 08:34:09;;;;;;;13.77;3.67;;;;;;;;;;5065376;28;20020;-61
2022/05/21 08:36:35;;;;;;;17.38;3.75;;;;;;;;;;5064428;28;20111;-61
2022/05/21 08:39:01;;;;;;;16.65;3.88;;;;;;;;;;5061225;28;20519;-61
2022/05/21 08:41:33;;;;;;;18.55;3.85;;;;;;;;;;5057991;28;20083;-61
2022/05/21 08:44:17;;;;;;;16.77;3.95;;;;;;;;;;5058776;28;20100;-61
2022/05/21 08:47:29;;;;;;;13.57;4.40;;;;;;;;;;5061705;28;20238;-62
2022/05/21 08:50:11;;;;;;;15.70;4.80;;;;;;;;;;4988552;28;20041;-61
2022/05/21 08:52:52;;;;;;;17.80;4.07;;;;;;;;;;4992519;28;20470;-61
2022/05/21 08:55:20;;;;;;;10.25;3.90;;;;;;;;;;4991197;28;20038;-61
2022/05/21 08:57:52;;;;;;;21.40;4.28;;;;;;;;;;4990907;28;20046;-61
2022/05/21 09:00:30;;;;;;;11.82;3.97;;;;;;;;;;4986097;28;20081;-61
2022/05/21 09:02:56;;;;;;;16.58;4.20;;;;;;;;;;4991417;28;20116;-61
2022/05/21 09:05:23;;;;;;;16.65;4.22;;;;;;;;;;4986455;28;20441;-61
2022/05/21 09:08:07;;;;;;;13.68;4.55;;;;;;;;;;4984469;28;20034;-61
2022/05/21 09:10:43;;;;;;;13.60;3.70;;;;;;;;;;4986872;28;20037;-61
2022/05/21 09:13:44;;;;;;;10.48;4.22;;;;;;;;;;4988657;28;20502;-61
2022/05/21 09:18:59;;;;;;;12.35;3.92;;;;;;;;;;4947791;28;20026;-61
2022/05/21 09:21:28;;;;;;;15.93;4.78;;;;;;;;;;4993326;28;20099;-59
2022/05/21 09:23:57;;;;;;;19.48;4.15;;;;;;;;;;5003897;28;20046;-59
2022/05/21 09:26:50;;;;;;;14.13;4.18;;;;;;;;;;5008094;28;20042;-59
2022/05/21 09:29:20;;;;;;;21.45;4.38;;;;;;;;;;5003831;28;20042;-59
2022/05/21 09:31:46;;;;;;;12.20;3.80;;;;;;;;;;5003171;28;20080;-62
2022/05/21 09:34:30;;;;;;;18.55;4.03;;;;;;;;;;5004996;28;20050;-61
2022/05/21 09:36:57;;;;;;;9.35;3.70;;;;;;;;;;5003334;28;20037;-61
2022/05/21 09:39:32;;;;;;;24.48;4.80;;;;;;;;;;5002695;28;20734;-61
2022/05/21 09:45:24;;;;;;;16.55;4.57;;;;;;;;;;5000850;28;20506;-61
2022/05/21 09:48:14;;;;;;;14.55;4.32;;;;;;;;;;4996635;28;20038;-61
2022/05/21 09:50:46;;;;;;;15.38;5.05;;;;;;;;;;4997710;28;20486;-60
2022/05/21 09:53:36;;;;;;;11.13;4.63;;;;;;;;;;5053222;28;20083;-60
2022/05/21 09:56:08;;;;;;;13.40;4.80;;;;;;;;;;5060638;28;20041;-62
2022/05/21 09:58:40;;;;;;;16.60;4.38;;;;;;;;;;5057666;28;20029;-60
2022/05/21 10:01:08;;;;;;;8.50;3.95;;;;;;;;;;5053236;28;20489;-60
2022/05/21 10:03:51;;;;;;;13.45;3.92;;;;;;;;;;5060607;28;20360;-60
2022/05/21 10:06:27;;;;;;;15.07;4.43;;;;;;;;;;5064967;28;20029;-60
2022/05/21 10:11:56;;;;;;;15.98;4.18;;;;;;;;;;5060629;28;20106;-60
2022/05/21 10:14:32;;;;;;;10.30;4.15;;;;;;;;;;5060033;28;20448;-60
2022/05/21 10:17:01;;;;;;;15.07;4.40;;;;;;;;;;5056856;28;20039;-60
2022/05/21 10:19:36;;;;;;;10.18;3.95;;;;;;;;;;5063078;28;20039;-62
2022/05/21 10:22:20;;;;;;;15.82;4.05;;;;;;;;;;5055416;28;20043;-62
2022/05/21 10:25:00;;;;;;;16.67;4.65;;;;;;;;;;5060561;28;20612;-60
2022/05/21 10:27:57;;;;;;;11.05;4.07;;;;;;;;;;5067399;28;20024;-60
2022/05/21 10:31:01;;;;;;;14.93;4.38;;;;;;;;;;5039946;28;20043;-60
2022/05/21 10:34:03;;;;;;;12.57;4.40;;;;;;;;;;4990661;28;20049;-60
2022/05/21 10:36:58;;;;;;;19.90;5.13;;;;;;;;;;4987622;28;20049;-60
2022/05/21 10:39:47;;;;;;;14.05;4.80;;;;;;;;;;4985590;28;20045;-60
2022/05/21 10:42:39;;;;;;;16.80;4.22;;;;;;;;;;4983540;28;20030;-60
2022/05/21 10:45:19;;;;;;;13.02;4.07;;;;;;;;;;4984966;28;20034;-62
2022/05/21 10:48:08;;;;;;;18.23;4.68;;;;;;;;;;4986063;28;20038;-62
2022/05/21 10:51:02;;;;;;;20.85;4.63;;;;;;;;;;4983528;28;20054;-62
2022/05/21 10:53:50;;;;;;;13.23;4.30;;;;;;;;;;4981883;28;20030;-60
2022/05/21 10:56:37;;;;;;;10.90;4.80;;;;;;;;;;4986404;28;20056;-60
2022/05/21 10:59:33;;;;;;;13.35;4.30;;;;;;;;;;4983192;28;20038;-60
2022/05/21 11:02:07;;;;;;;22.42;4.70;;;;;;;;;;4989749;28;20042;-60
2022/05/21 11:05:07;;;;;;;15.27;4.40;;;;;;;;;;4985205;28;20034;-60
2022/05/21 11:08:08;;;;;;;14.30;4.38;;;;;;;;;;4985948;28;20040;-60
2022/05/21 11:10:51;;;;;;;17.58;5.07;;;;;;;;;;5016038;28;20067;-59
2022/05/21 11:13:21;;;;;;;14.15;4.47;;;;;;;;;;5056242;28;20767;-60
2022/05/21 11:15:56;;;;;;;11.43;3.80;;;;;;;;;;5059749;28;20079;-60
2022/05/21 11:18:46;;;;;;;13.93;4.40;;;;;;;;;;5059621;28;20035;-60
2022/05/21 11:21:23;;;;;;;15.73;4.97;;;;;;;;;;5055499;28;20508;-59
2022/05/21 11:24:45;;;;;;;14.40;4.20;;;;;;;;;;5056750;28;20042;-60
2022/05/21 11:27:28;;;;;;;10.23;4.00;;;;;;;;;;5060847;28;20135;-59
2022/05/21 11:30:01;;;;;;;16.40;4.43;;;;;;;;;;5054795;28;20562;-60
2022/05/21 11:38:48;;;;;;;14.00;4.65;;;;;;;;;;5058073;28;20438;-60
2022/05/21 11:41:30;;;;;;;14.93;4.90;;;;;;;;;;5053116;28;20047;-60
2022/05/21 11:46:56;;;;;;;31.80;6.28;;;;;;;;;;5055979;28;20079;-59
2022/05/21 11:49:27;;;;;;;18.50;5.25;;;;;;;;;;5066760;28;20064;-61
2022/05/21 11:51:54;;;;;;;16.90;5.47;;;;;;;;;;5056480;28;20020;-60
2022/05/21 11:54:45;;;;;;;15.98;4.70;;;;;;;;;;5062326;28;20067;-60
2022/05/21 11:57:11;;;;;;;16.05;5.43;;;;;;;;;;5058458;28;20089;-61
2022/05/21 11:59:58;;;;;;;30.60;8.68;;;;;;;;;;5055723;28;20818;-62
2022/05/21 12:02:31;;;;;;;14.88;4.32;;;;;;;;;;5059353;28;20029;-60
2022/05/21 12:05:00;;;;;;;16.95;4.40;;;;;;;;;;5054986;28;20401;-60
2022/05/21 12:07:53;;;;;;;14.80;4.63;;;;;;;;;;5061334;28;20048;-60
2022/05/21 12:10:21;;;;;;;14.55;4.07;;;;;;;;;;5056950;28;20047;-60
2022/05/21 12:13:12;;;;;;;356.05;31.70;;;;;;;;;;5054454;28;20111;-59
2022/05/21 12:15:46;;;;;;;17.55;4.65;;;;;;;;;;5060585;28;20307;-59
2022/05/21 12:18:51;;;;;;;11.77;3.95;;;;;;;;;;5062520;28;21806;-62
2022/05/21 12:21:50;;;;;;;14.02;4.70;;;;;;;;;;4963860;28;20041;-59
2022/05/21 12:24:33;;;;;;;16.45;4.65;;;;;;;;;;4975225;28;20042;-58
2022/05/21 12:27:24;;;;;;;18.13;4.78;;;;;;;;;;4971032;28;20069;-59
2022/05/21 12:30:00;;;;;;;17.00;4.15;;;;;;;;;;4967871;28;20073;-59
2022/05/21 12:32:29;;;;;;;14.07;3.97;;;;;;;;;;4971926;28;20113;-59
2022/05/21 12:35:25;;;;;;;15.43;3.33;;;;;;;;;;4977784;28;20117;-59
2022/05/21 12:38:01;;;;;;;10.10;3.58;;;;;;;;;;4976168;28;20045;-60
2022/05/21 12:40:38;;;;;;;18.85;4.50;;;;;;;;;;4975593;28;20229;-60
2022/05/21 12:43:22;;;;;;;13.88;4.13;;;;;;;;;;4973178;28;20538;-60
2022/05/21 12:45:50;;;;;;;8.05;3.25;;;;;;;;;;4975192;28;20502;-61
2022/05/21 12:48:25;;;;;;;11.18;3.42;;;;;;;;;;4974862;28;20186;-62
2022/05/21 12:50:58;;;;;;;120.68;13.85;;;;;;;;;;4972798;28;20038;-62
2022/05/21 12:53:34;;;;;;;15.55;4.05;;;;;;;;;;4968488;28;20093;-61
2022/05/21 12:56:19;;;;;;;9.13;4.15;;;;;;;;;;5040961;28;20060;-62
2022/05/21 12:58:45;;;;;;;11.35;3.35;;;;;;;;;;5059829;28;20047;-62
2022/05/21 13:01:27;;;;;;;15.00;4.25;;;;;;;;;;5055695;28;20045;-62
2022/05/21 13:03:53;;;;;;;9.15;3.75;;;;;;;;;;5059222;28;20040;-62
2022/05/21 13:06:26;;;;;;;11.55;3.90;;;;;;;;;;5054079;28;20032;-63
2022/05/21 13:08:52;;;;;;;7.55;3.67;;;;;;;;;;5059589;28;20054;-62
2022/05/21 13:11:24;;;;;;;10.20;3.78;;;;;;;;;;5058204;28;20037;-62
2022/05/21 13:14:08;;;;;;;11.90;3.65;;;;;;;;;;5056875;28;20021;-62
2022/05/21 13:16:35;;;;;;;8.65;3.55;;;;;;;;;;5058155;28;20029;-61
2022/05/21 13:19:09;;;;;;;7.55;3.65;;;;;;;;;;5054917;28;20082;-62
2022/05/21 13:21:47;;;;;;;20.10;4.25;;;;;;;;;;5071581;28;20039;-62
2022/05/21 13:24:42;;;;;;;9.23;3.92;;;;;;;;;;5052271;28;20064;-61
2022/05/21 13:27:16;;;;;;;13.10;4.25;;;;;;;;;;5063068;28;20032;-61
2022/05/21 13:29:43;;;;;;;11.93;4.07;;;;;;;;;;5061662;28;20106;-61
2022/05/21 13:32:17;;;;;;;17.40;4.45;;;;;;;;;;5063657;28;20059;-61
2022/05/21 13:34:43;;;;;;;18.95;4.10;;;;;;;;;;5054014;28;20036;-60
2022/05/21 13:37:10;;;;;;;13.18;4.28;;;;;;;;;;5063476;28;20877;-60
2022/05/21 13:39:37;;;;;;;13.48;4.18;;;;;;;;;;5058692;28;20131;-60
2022/05/21 13:42:18;;;;;;;18.17;4.10;;;;;;;;;;5053044;28;20025;-63
2022/05/21 13:44:47;;;;;;;11.02;4.32;;;;;;;;;;5055566;28;20020;-60
2022/05/21 13:47:25;;;;;;;9.40;3.78;;;;;;;;;;5061559;28;22887;-62
2022/05/21 13:49:53;;;;;;;10.07;3.70;;;;;;;;;;5055447;28;20075;-60
2022/05/21 13:52:20;;;;;;;10.88;3.80;;;;;;;;;;5061171;28;20078;-61
2022/05/21 13:54:47;;;;;;;7.63;3.47;;;;;;;;;;5054945;28;20140;-61
2022/05/21 13:57:28;;;;;;;9.98;3.67;;;;;;;;;;5056275;28;20028;-61
2022/05/21 14:00:00;;;;;;;11.40;3.70;;;;;;;;;;5055247;28;20151;-61
2022/05/21 14:02:51;;;;;;;11.38;3.70;;;;;;;;;;5058685;28;20044;-60
2022/05/21 14:05:29;;;;;;;7.93;3.53;;;;;;;;;;5065643;28;20066;-61
2022/05/21 14:08:07;;;;;;;11.18;3.67;;;;;;;;;;5065053;28;20028;-61
2022/05/21 14:10:44;;;;;;;14.45;3.50;;;;;;;;;;5058389;28;20045;-61
2022/05/21 14:13:26;;;;;;;11.00;3.33;;;;;;;;;;5053694;28;20028;-61
2022/05/21 14:15:52;;;;;;;8.85;3.47;;;;;;;;;;5054516;28;20086;-61
2022/05/21 14:18:41;;;;;;;11.32;4.00;;;;;;;;;;5058144;28;20040;-61
2022/05/21 14:21:17;;;;;;;10.32;3.45;;;;;;;;;;5059086;28;20549;-60
2022/05/21 14:23:43;;;;;;;8.32;3.20;;;;;;;;;;5054514;28;20032;-60
2022/05/21 14:26:33;;;;;;;11.40;2.97;;;;;;;;;;5058641;28;20037;-61
2022/05/21 14:29:34;;;;;;;7.68;3.45;;;;;;;;;;5057194;28;20037;-61
2022/05/21 14:32:10;;;;;;;16.30;3.83;;;;;;;;;;5052675;28;20032;-61
2022/05/21 14:34:36;;;;;;;9.02;3.22;;;;;;;;;;5057799;28;20046;-61
2022/05/21 14:37:02;;;;;;;8.27;2.85;;;;;;;;;;5063238;28;20057;-61
2022/05/21 14:39:28;;;;;;;9.65;3.58;;;;;;;;;;5062621;28;20044;-61
2022/05/21 14:41:59;;;;;;;13.05;3.55;;;;;;;;;;5058003;28;20111;-61
2022/05/21 14:44:26;;;;;;;10.55;3.38;;;;;;;;;;5051807;28;20024;-61
2022/05/21 14:49:38;;;;;;;9.13;3.42;;;;;;;;;;5050979;28;20657;-61
2022/05/21 14:54:56;;;;;;;14.55;3.53;;;;;;;;;;5055902;28;20052;-60
2022/05/21 14:57:21;;;;;;;9.60;3.45;;;;;;;;;;5065706;28;20396;-61
2022/05/21 14:59:47;;;;;;;6.15;2.90;;;;;;;;;;5056640;28;20042;-61
2022/05/21 15:02:13;;;;;;;6.85;2.42;;;;;;;;;;5060727;28;20031;-61
2022/05/21 15:04:39;;;;;;;12.82;3.28;;;;;;;;;;5060924;28;20496;-61
2022/05/21 15:07:17;;;;;;;7.57;3.03;;;;;;;;;;5059972;28;20946;-61
2022/05/21 15:09:44;;;;;;;5.72;2.55;;;;;;;;;;5061878;28;20067;-61
2022/05/21 15:12:10;;;;;;;6.70;3.25;;;;;;;;;;5055523;28;20032;-61
2022/05/21 15:14:38;;;;;;;5.63;2.70;;;;;;;;;;5059999;28;20042;-60
2022/05/21 15:17:09;;;;;;;11.93;3.58;;;;;;;;;;5055285;28;20040;-60
2022/05/21 15:19:36;;;;;;;;;;;;;;;;;;5063261;28;20480;-60
2022/05/21 15:22:04;;;;;;;9.45;3.00;;;;;;;;;;5061618;28;19916;-60
2022/05/21 15:24:30;;;;;;;10.00;2.50;;;;;;;;;;5053115;28;20059;-59
2022/05/21 15:26:56;;;;;;;10.15;2.80;;;;;;;;;;5058959;28;20032;-60
2022/05/21 15:29:22;;;;;;;9.85;2.80;;;;;;;;;;5062430;28;20039;-60
2022/05/21 15:31:47;;;;;;;13.25;3.03;;;;;;;;;;5061536;28;20032;-60
2022/05/21 15:34:13;;;;;;;7.22;3.13;;;;;;;;;;5063456;28;20036;-60
2022/05/21 15:36:39;;;;;;;8.25;3.05;;;;;;;;;;5069407;28;20478;-60
2022/05/21 15:39:04;;;;;;;11.00;3.13;;;;;;;;;;5062452;28;20090;-60
2022/05/21 15:41:32;;;;;;;9.93;2.85;;;;;;;;;;5061754;28;20112;-60
2022/05/21 15:43:58;;;;;;;9.50;3.10;;;;;;;;;;5055521;28;20474;-61
2022/05/21 15:46:26;;;;;;;9.02;3.38;;;;;;;;;;5073865;28;20040;-60